createdAt,value
2022-10-12T00:01:22.571Z,99958.47
2022-10-12T00:03:51.613Z,99952.19
2022-10-12T00:06:23.795Z,99953.72
2022-10-12T00:08:55.180Z,99953.28
2022-10-12T00:11:29.728Z,99951.97
2022-10-12T00:14:00.362Z,99961.59
2022-10-12T00:16:31.507Z,99959.22
2022-10-12T00:19:00.794Z,99952.38
2022-10-12T00:21:31.333Z,99958.59
2022-10-12T00:24:02.016Z,99952.63
2022-10-12T00:26:33.458Z,99947.38
2022-10-12T00:29:04.779Z,99953.88
2022-10-12T00:31:34.335Z,99953.50
2022-10-12T00:34:05.254Z,99954.44
2022-10-12T00:36:36.323Z,99960.00
2022-10-12T00:39:08.990Z,99951.66
2022-10-12T00:41:42.619Z,99960.34
2022-10-12T00:44:39.453Z,99951.75
2022-10-12T00:47:33.699Z,99959.41
2022-10-12T00:50:11.257Z,99962.78
2022-10-12T00:52:49.170Z,99961.66
2022-10-12T00:55:22.424Z,99957.66
2022-10-12T00:57:56.334Z,99958.25
2022-10-12T01:00:25.727Z,99956.44
2022-10-12T01:02:56.484Z,99959.47
2022-10-12T01:05:25.811Z,99953.50
2022-10-12T01:07:54.482Z,99956.00
2022-10-12T01:10:23.168Z,99952.81
2022-10-12T01:12:53.677Z,99939.22
2022-10-12T01:15:25.093Z,99948.88
2022-10-12T01:18:02.784Z,99937.16
2022-10-12T01:20:52.610Z,99939.31
2022-10-12T01:24:16.048Z,99938.69
2022-10-12T01:27:14.885Z,99931.06
2022-10-12T01:30:22.020Z,99936.84
2022-10-12T01:33:19.128Z,99938.06
2022-10-12T01:35:59.686Z,99934.72
2022-10-12T01:38:42.698Z,99942.53
2022-10-12T01:41:19.526Z,99938.97
2022-10-12T01:43:48.166Z,99940.03
2022-10-12T01:46:54.178Z,99939.19
2022-10-12T01:49:28.615Z,99938.38
2022-10-12T01:52:29.243Z,99938.72
2022-10-12T01:55:19.067Z,99940.78
2022-10-12T01:58:06.255Z,99933.78
2022-10-12T02:00:44.165Z,99931.50
2022-10-12T02:03:25.377Z,99928.19
2022-10-12T02:06:02.124Z,99926.53
2022-10-12T02:08:39.114Z,99936.44
2022-10-12T02:11:13.062Z,99930.50
2022-10-12T02:13:46.233Z,99925.94
2022-10-12T02:16:20.252Z,99920.25
2022-10-12T02:18:56.580Z,99921.38
2022-10-12T02:21:32.042Z,99922.31
2022-10-12T02:24:05.790Z,99926.53
2022-10-12T02:26:38.923Z,99936.88
2022-10-12T02:29:14.560Z,99936.88
2022-10-12T02:31:55.835Z,99929.91
2022-10-12T02:34:34.878Z,99936.31
2022-10-12T02:37:10.698Z,99929.16
2022-10-12T02:39:47.277Z,99931.75
2022-10-12T02:42:24.866Z,99931.25
2022-10-12T02:44:56.512Z,99933.56
2022-10-12T02:47:30.071Z,99932.25
2022-10-12T02:50:02.438Z,99930.59
2022-10-12T02:52:33.842Z,99926.00
2022-10-12T02:55:02.532Z,99923.53
2022-10-12T02:57:31.245Z,99927.63
2022-10-12T03:00:03.664Z,99920.97
2022-10-12T03:02:32.369Z,99928.59
2022-10-12T03:05:02.435Z,99930.59
2022-10-12T03:07:31.133Z,99926.81
2022-10-12T03:09:59.764Z,99926.34
2022-10-12T03:12:29.513Z,99928.69
2022-10-12T03:15:00.175Z,99926.19
2022-10-12T03:17:28.779Z,99925.34
2022-10-12T03:19:57.421Z,99922.88
2022-10-12T03:22:27.440Z,99924.53
2022-10-12T03:24:56.767Z,99922.16
2022-10-12T03:27:26.438Z,99928.69
2022-10-12T03:29:55.115Z,99924.75
2022-10-12T03:32:23.784Z,99924.91
2022-10-12T03:34:52.789Z,99920.09
2022-10-12T03:37:21.460Z,99926.03
2022-10-12T03:39:51.482Z,99918.41
2022-10-12T03:42:20.175Z,99919.22
2022-10-12T03:44:48.759Z,99916.72
2022-10-12T03:47:17.494Z,99917.72
2022-10-12T03:49:46.222Z,99917.06
2022-10-12T03:52:14.886Z,99917.38
2022-10-12T03:54:43.650Z,99917.84
2022-10-12T03:57:13.860Z,99910.03
2022-10-12T03:59:43.026Z,99911.53
2022-10-12T04:02:16.637Z,99907.38
2022-10-12T04:04:45.941Z,99907.03
2022-10-12T04:07:14.987Z,99905.72
2022-10-12T04:09:43.891Z,99904.91
2022-10-12T04:12:16.148Z,99907.09
2022-10-12T04:14:45.482Z,99910.72
2022-10-12T04:17:16.425Z,99906.09
2022-10-12T04:19:45.496Z,99909.53
2022-10-12T04:22:14.225Z,99908.19
2022-10-12T04:24:42.845Z,99908.69
2022-10-12T04:27:12.154Z,99909.00
2022-10-12T04:29:42.247Z,99903.66
2022-10-12T04:32:12.723Z,99909.66
2022-10-12T04:34:41.519Z,99900.78
2022-10-12T04:37:10.323Z,99897.81
2022-10-12T04:39:39.059Z,99906.78
2022-10-12T04:42:11.443Z,99897.81
2022-10-12T04:44:41.604Z,99905.59
2022-10-12T04:48:24.239Z,99899.47
2022-10-12T04:50:54.325Z,99907.47
2022-10-12T04:53:22.982Z,99907.47
2022-10-12T04:55:52.687Z,99911.13
2022-10-12T04:58:21.355Z,99909.63
2022-10-12T05:00:51.684Z,99909.81
2022-10-12T05:03:20.437Z,99911.44
2022-10-12T05:05:52.824Z,99918.06
2022-10-12T05:08:21.471Z,99918.41
2022-10-12T05:10:50.039Z,99913.47
2022-10-12T05:13:18.971Z,99909.66
2022-10-12T05:15:47.618Z,99914.16
2022-10-12T05:18:18.000Z,99916.78
2022-10-12T05:20:46.749Z,99916.13
2022-10-12T05:23:15.347Z,99911.31
2022-10-12T05:25:43.993Z,99910.84
2022-10-12T05:28:12.700Z,99913.84
2022-10-12T05:30:41.357Z,99918.31
2022-10-12T05:33:09.951Z,99912.84
2022-10-12T05:35:43.970Z,99910.34
2022-10-12T05:38:15.491Z,99910.94
2022-10-12T05:40:44.937Z,99918.47
2022-10-12T05:43:13.736Z,99905.38
2022-10-12T05:45:42.370Z,99911.03
2022-10-12T05:48:11.007Z,99908.88
2022-10-12T05:50:40.993Z,99908.69
2022-10-12T05:53:09.680Z,99911.50
2022-10-12T05:55:38.311Z,99903.88
2022-10-12T05:58:06.983Z,99906.03
2022-10-12T06:00:35.630Z,99911.63
2022-10-12T06:03:04.310Z,99904.38
2022-10-12T06:05:32.981Z,99917.31
2022-10-12T06:08:02.953Z,99913.50
2022-10-12T06:10:32.294Z,99913.19
2022-10-12T06:13:00.992Z,99914.47
2022-10-12T06:15:29.740Z,99917.44
2022-10-12T06:17:58.367Z,99920.19
2022-10-12T06:20:27.061Z,99915.66
2022-10-12T06:22:55.744Z,99923.75
2022-10-12T06:25:25.767Z,99925.41
2022-10-12T06:27:54.412Z,99928.19
2022-10-12T06:30:23.035Z,99928.16
2022-10-12T06:32:51.690Z,99918.53
2022-10-12T06:35:20.349Z,99923.09
2022-10-12T06:37:51.567Z,99927.63
2022-10-12T06:40:21.049Z,99922.94
2022-10-12T06:42:56.156Z,99922.88
2022-10-12T06:45:27.115Z,99922.81
2022-10-12T06:47:55.756Z,99926.41
2022-10-12T06:50:24.736Z,99926.91
2022-10-12T06:52:53.469Z,99929.66
2022-10-12T06:55:22.331Z,99931.41
2022-10-12T06:57:52.450Z,99934.19
2022-10-12T07:00:21.343Z,99932.44
2022-10-12T07:02:51.212Z,99931.72
2022-10-12T07:05:21.092Z,99930.38
2022-10-12T07:07:49.826Z,99930.31
2022-10-12T07:10:18.694Z,99921.59
2022-10-12T07:12:47.343Z,99927.84
2022-10-12T07:15:17.549Z,99924.47
2022-10-12T07:17:46.230Z,99926.38
2022-10-12T07:20:15.251Z,99926.66
2022-10-12T07:22:44.606Z,99930.25
2022-10-12T07:25:13.210Z,99928.53
2022-10-12T07:27:42.077Z,99923.28
2022-10-12T07:30:13.379Z,99917.38
2022-10-12T07:32:44.686Z,99922.63
2022-10-12T07:35:13.291Z,99911.59
2022-10-12T07:37:42.267Z,99907.19
2022-10-12T07:40:11.897Z,99908.09
2022-10-12T07:42:59.161Z,99909.00
2022-10-12T07:45:29.818Z,99911.53
2022-10-12T07:47:59.816Z,99909.59
2022-10-12T07:50:28.430Z,99911.31
2022-10-12T07:52:57.156Z,99908.50
2022-10-12T07:55:25.733Z,99901.41
2022-10-12T07:57:54.408Z,99902.75
2022-10-12T08:00:23.244Z,99903.44
2022-10-12T08:02:51.844Z,99900.63
2022-10-12T08:05:22.466Z,99901.13
2022-10-12T08:07:52.543Z,99905.72
2022-10-12T08:10:21.813Z,99900.22
2022-10-12T08:12:52.235Z,99900.06
2022-10-12T08:15:21.315Z,99899.72
2022-10-12T08:17:49.901Z,99902.88
2022-10-12T08:20:18.818Z,99899.03
2022-10-12T08:22:48.855Z,99895.00
2022-10-12T08:25:17.624Z,99891.41
2022-10-12T08:27:46.232Z,99892.47
2022-10-12T08:30:15.507Z,99895.03
2022-10-12T08:32:44.187Z,99895.47
2022-10-12T08:35:12.798Z,99894.91
2022-10-12T08:37:41.698Z,99889.19
2022-10-12T08:40:17.944Z,99889.25
2022-10-12T08:42:57.916Z,99885.94
2022-10-12T08:45:39.628Z,99886.91
2022-10-12T08:48:16.515Z,99883.16
2022-10-12T08:50:53.271Z,99878.09
2022-10-12T08:53:29.316Z,99877.75
2022-10-12T08:56:00.932Z,99874.28
2022-10-12T08:58:34.530Z,99866.44
2022-10-12T09:01:19.654Z,99868.06
2022-10-12T09:04:05.958Z,99865.16
2022-10-12T09:06:42.798Z,99859.94
2022-10-12T09:09:34.372Z,99862.75
2022-10-12T09:12:22.202Z,99859.00
2022-10-12T09:15:00.465Z,99851.34
2022-10-12T09:17:38.367Z,99854.22
2022-10-12T09:20:19.267Z,99854.84
2022-10-12T09:22:52.344Z,99855.94
2022-10-12T09:25:26.865Z,99844.16
2022-10-12T09:28:15.047Z,99847.69
2022-10-12T09:31:01.682Z,99849.44
2022-10-12T09:33:39.047Z,99843.00
2022-10-12T09:36:11.206Z,99849.31
2022-10-12T09:38:40.222Z,99846.50
2022-10-12T09:41:20.946Z,99835.66
2022-10-12T09:43:54.876Z,99840.25
2022-10-12T09:46:36.679Z,99842.53
2022-10-12T09:49:05.310Z,99833.88
2022-10-12T09:51:34.471Z,99832.44
2022-10-12T09:54:06.611Z,99839.00
2022-10-12T09:56:42.305Z,99836.22
2022-10-12T09:59:30.453Z,99830.19
2022-10-12T10:02:05.953Z,99830.66
2022-10-12T10:04:34.983Z,99834.59
2022-10-12T10:07:28.592Z,99825.16
2022-10-12T10:10:19.064Z,99827.75
2022-10-12T10:12:54.807Z,99823.41
2022-10-12T10:15:29.275Z,99819.94
2022-10-12T10:18:01.339Z,99828.84
2022-10-12T10:20:35.421Z,99822.91
2022-10-12T10:23:06.050Z,99824.97
2022-10-12T10:25:35.708Z,99820.19
2022-10-12T10:28:25.661Z,99822.75
2022-10-12T10:31:08.443Z,99826.13
2022-10-12T10:33:38.283Z,99818.41
2022-10-12T10:36:19.511Z,99821.44
2022-10-12T10:38:58.341Z,99815.94
2022-10-12T10:41:38.478Z,99826.97
2022-10-12T10:44:24.286Z,99825.22
2022-10-12T10:46:55.716Z,99808.50
2022-10-12T10:49:37.833Z,99814.69
2022-10-12T10:52:22.875Z,99813.63
2022-10-12T10:55:08.202Z,99812.53
2022-10-12T10:57:45.258Z,99807.22
2022-10-12T11:00:37.840Z,99809.59
2022-10-12T11:03:18.293Z,99802.88
2022-10-12T11:05:54.134Z,99800.69
2022-10-12T11:08:27.303Z,99799.00
2022-10-12T11:11:03.258Z,99805.00
2022-10-12T11:13:37.584Z,99802.41
2022-10-12T11:16:20.506Z,99797.72
2022-10-12T11:18:56.730Z,99799.81
2022-10-12T11:21:34.041Z,99797.69
2022-10-12T11:24:14.523Z,99794.53
2022-10-12T11:26:52.539Z,99794.06
2022-10-12T11:29:22.172Z,99781.59
2022-10-12T11:32:00.096Z,99777.84
2022-10-12T11:34:39.746Z,99770.81
2022-10-12T11:37:20.264Z,99777.41
2022-10-12T11:39:53.779Z,99774.47
2022-10-12T11:42:33.805Z,99775.66
2022-10-12T11:45:07.270Z,99765.81
2022-10-12T11:47:44.136Z,99772.47
2022-10-12T11:50:31.382Z,99758.06
2022-10-12T11:53:05.081Z,99759.94
2022-10-12T11:55:58.579Z,99759.50
2022-10-12T11:58:56.060Z,99757.00
2022-10-12T12:02:01.275Z,99750.94
2022-10-12T12:04:42.568Z,99745.56
2022-10-12T12:07:59.262Z,99743.56
2022-10-12T12:11:06.774Z,99741.59
2022-10-12T12:13:35.483Z,99739.34
2022-10-12T12:16:36.961Z,99728.84
2022-10-12T12:19:42.615Z,99726.41
2022-10-12T12:22:24.851Z,99734.13
2022-10-12T12:25:17.599Z,99732.25
2022-10-12T12:27:51.474Z,99728.72
2022-10-12T12:30:38.120Z,99726.16
2022-10-12T12:33:30.080Z,99724.28
2022-10-12T12:36:02.860Z,99723.91
2022-10-12T12:38:36.749Z,99729.06
2022-10-12T12:41:11.756Z,99722.16
2022-10-12T12:44:03.335Z,99716.25
2022-10-12T12:47:43.865Z,99718.69
2022-10-12T12:50:35.645Z,99717.06
2022-10-12T12:53:15.561Z,99724.06
2022-10-12T12:56:03.844Z,99723.38
2022-10-12T12:59:01.357Z,99717.66
2022-10-12T13:02:11.340Z,99711.94
2022-10-12T13:05:14.915Z,99706.06
2022-10-12T13:08:14.529Z,99712.16
2022-10-12T13:11:12.372Z,99712.41
2022-10-12T13:14:04.374Z,99706.78
2022-10-12T13:17:31.780Z,99705.50
2022-10-12T13:20:04.336Z,99709.72
2022-10-12T13:22:37.250Z,99705.16
2022-10-12T13:25:13.670Z,99699.19
2022-10-12T13:27:50.634Z,99700.94
2022-10-12T13:30:34.667Z,99692.50
2022-10-12T13:33:14.766Z,99694.97
2022-10-12T13:35:50.169Z,99689.38
2022-10-12T13:38:23.886Z,99692.38
2022-10-12T13:41:02.693Z,99691.81
2022-10-12T13:43:43.457Z,99686.91
2022-10-12T13:46:15.899Z,99684.91
2022-10-12T13:49:05.693Z,99686.16
2022-10-12T13:51:36.279Z,99682.31
2022-10-12T13:54:22.152Z,99672.03
2022-10-12T13:56:58.899Z,99668.38
2022-10-12T13:59:34.697Z,99668.63
2022-10-12T14:02:17.276Z,99670.97
2022-10-12T14:04:46.475Z,99661.72
2022-10-12T14:07:24.698Z,99665.22
2022-10-12T14:10:00.140Z,99657.63
2022-10-12T14:12:32.717Z,99667.78
2022-10-12T14:15:14.205Z,99664.75
2022-10-12T14:17:47.246Z,99667.66
2022-10-12T14:20:31.860Z,99663.56
2022-10-12T14:23:04.452Z,99658.66
2022-10-12T14:25:34.724Z,99653.50
2022-10-12T14:28:07.905Z,99652.94
2022-10-12T14:30:40.906Z,99644.25
2022-10-12T14:33:26.198Z,99648.47
2022-10-12T14:36:15.849Z,99653.25
2022-10-12T14:38:48.040Z,99638.66
2022-10-12T14:41:39.978Z,99639.91
2022-10-12T14:44:16.166Z,99639.56
2022-10-12T14:46:54.118Z,99637.94
2022-10-12T14:49:28.128Z,99638.75
2022-10-12T14:51:57.371Z,99638.16
2022-10-12T14:54:26.466Z,99631.38
2022-10-12T14:56:55.437Z,99635.13
2022-10-12T14:59:24.484Z,99631.72
2022-10-12T15:01:54.008Z,99627.03
2022-10-12T15:04:24.362Z,99618.34
2022-10-12T15:06:53.123Z,99622.91
2022-10-12T15:09:24.381Z,99626.06
2022-10-12T15:11:53.168Z,99623.81
2022-10-12T15:14:22.184Z,99618.91
2022-10-12T15:16:51.210Z,99618.53
2022-10-12T15:19:20.611Z,99619.00
2022-10-12T15:21:50.851Z,99614.47
2022-10-12T15:24:22.600Z,99619.06
2022-10-12T15:26:51.398Z,99622.81
2022-10-12T15:29:20.409Z,99619.06
2022-10-12T15:31:51.285Z,99620.56
2022-10-12T15:34:21.144Z,99624.53
2022-10-12T15:36:51.264Z,99629.28
2022-10-12T15:39:20.215Z,99627.88
2022-10-12T15:41:49.203Z,99624.97
2022-10-12T15:44:18.902Z,99620.06
2022-10-12T15:46:53.209Z,99626.91
2022-10-12T15:49:25.463Z,99623.50
2022-10-12T15:51:56.846Z,99628.06
2022-10-12T15:54:28.194Z,99627.28
2022-10-12T15:57:24.488Z,99627.75
2022-10-12T15:59:58.324Z,99622.00
2022-10-12T16:02:28.899Z,99620.38
2022-10-12T16:04:57.784Z,99627.44
2022-10-12T16:07:28.366Z,99627.91
2022-10-12T16:09:59.499Z,99632.06
2022-10-12T16:12:28.297Z,99628.41
2022-10-12T16:14:57.122Z,99620.22
2022-10-12T16:17:25.824Z,99619.47
2022-10-12T16:19:55.172Z,99632.06
2022-10-12T16:22:33.690Z,99629.84
2022-10-12T16:25:07.536Z,99637.50
2022-10-12T16:27:37.537Z,99631.53
2022-10-12T16:30:13.751Z,99630.56
2022-10-12T16:32:43.766Z,99639.19
2022-10-12T16:35:15.131Z,99642.16
2022-10-12T16:37:45.661Z,99633.97
2022-10-12T16:40:17.023Z,99644.97
2022-10-12T16:42:46.443Z,99644.56
2022-10-12T16:45:15.637Z,99641.72
2022-10-12T16:47:44.753Z,99646.09
2022-10-12T16:50:20.727Z,99651.28
2022-10-12T16:52:51.941Z,99645.09
2022-10-12T16:55:22.185Z,99643.69
2022-10-12T16:57:50.997Z,99640.03
2022-10-12T17:00:21.786Z,99643.34
2022-10-12T17:02:53.003Z,99651.66
2022-10-12T17:05:26.711Z,99646.53
2022-10-12T17:07:56.984Z,99646.13
2022-10-12T17:10:26.907Z,99648.63
2022-10-12T17:12:55.756Z,99647.38
2022-10-12T17:15:30.211Z,99654.44
2022-10-12T17:17:59.751Z,99656.91
2022-10-12T17:20:28.574Z,99654.25
2022-10-12T17:23:10.065Z,99653.03
2022-10-12T17:25:39.180Z,99647.91
2022-10-12T17:28:10.817Z,99650.41
2022-10-12T17:30:47.760Z,99655.38
2022-10-12T17:33:16.575Z,99654.56
2022-10-12T17:36:06.962Z,99661.38
2022-10-12T17:38:38.691Z,99648.22
2022-10-12T17:41:07.954Z,99652.56
2022-10-12T17:43:38.779Z,99649.69
2022-10-12T17:46:23.033Z,99652.59
2022-10-12T17:48:52.988Z,99645.19
2022-10-12T17:51:21.981Z,99648.31
2022-10-12T17:53:54.609Z,99643.59
2022-10-12T17:56:31.884Z,99638.28
2022-10-12T17:59:05.648Z,99639.53
2022-10-12T18:01:35.820Z,99647.34
2022-10-12T18:04:06.983Z,99644.47
2022-10-12T18:06:44.209Z,99649.44
2022-10-12T18:09:16.003Z,99647.16
2022-10-12T18:11:45.562Z,99643.69
2022-10-12T18:14:15.009Z,99648.44
2022-10-12T18:16:43.776Z,99634.03
2022-10-12T18:19:18.215Z,99642.06
2022-10-12T18:21:47.728Z,99634.06
2022-10-12T18:24:18.851Z,99633.88
2022-10-12T18:26:49.176Z,99643.31
2022-10-12T18:29:22.469Z,99642.50
2022-10-12T18:31:53.172Z,99639.66
2022-10-12T18:34:22.137Z,99645.81
2022-10-12T18:36:52.833Z,99635.72
2022-10-12T18:39:22.969Z,99639.66
2022-10-12T18:42:09.041Z,99640.50
2022-10-12T18:44:37.871Z,99641.31
2022-10-12T18:47:06.698Z,99642.13
2022-10-12T18:49:35.471Z,99639.69
2022-10-12T18:52:04.419Z,99637.22
2022-10-12T18:54:34.771Z,99634.13
2022-10-12T18:57:03.782Z,99633.53
2022-10-12T18:59:32.425Z,99637.22
2022-10-12T19:02:01.601Z,99635.78
2022-10-12T19:04:30.369Z,99637.84
2022-10-12T19:06:59.155Z,99635.56
2022-10-12T19:09:27.964Z,99636.00
2022-10-12T19:11:58.185Z,99627.34
2022-10-12T19:14:29.068Z,99638.47
2022-10-12T19:16:57.820Z,99636.81
2022-10-12T19:19:26.577Z,99636.81
2022-10-12T19:21:55.476Z,99636.59
2022-10-12T19:24:24.206Z,99629.81
2022-10-12T19:26:53.393Z,99633.94
2022-10-12T19:29:23.578Z,99631.06
2022-10-12T19:31:53.961Z,99623.25
2022-10-12T19:34:23.853Z,99620.78
2022-10-12T19:36:53.059Z,99619.13
2022-10-12T19:39:25.166Z,99610.28
2022-10-12T19:41:54.411Z,99613.41
2022-10-12T19:44:24.988Z,99607.59
2022-10-12T19:46:53.754Z,99607.59
2022-10-12T19:49:22.670Z,99605.75
2022-10-12T19:51:51.471Z,99601.66
2022-10-12T19:54:20.163Z,99601.44
2022-10-12T19:56:48.911Z,99606.78
2022-10-12T19:59:17.671Z,99600.84
2022-10-12T20:01:48.286Z,99601.84
2022-10-12T20:04:17.235Z,99601.44
2022-10-12T20:06:46.081Z,99608.81
2022-10-12T20:09:14.900Z,99610.88
2022-10-12T20:11:43.774Z,99610.03
2022-10-12T20:14:12.693Z,99608.00
2022-10-12T20:16:41.546Z,99612.94
2022-10-12T20:19:11.825Z,99616.63
2022-10-12T20:21:40.497Z,99613.72
2022-10-12T20:24:11.157Z,99609.22
2022-10-12T20:26:40.051Z,99610.25
2022-10-12T20:29:08.685Z,99607.16
2022-10-12T20:31:37.338Z,99608.41
2022-10-12T20:34:06.049Z,99604.47
2022-10-12T20:36:36.174Z,99610.00
2022-10-12T20:39:05.660Z,99608.78
2022-10-12T20:41:34.532Z,99612.03
2022-10-12T20:44:03.565Z,99606.69
2022-10-12T20:46:32.344Z,99599.13
2022-10-12T20:49:03.047Z,99602.19
2022-10-12T20:51:37.118Z,99603.81
2022-10-12T20:54:08.924Z,99604.44
2022-10-12T20:56:42.445Z,99609.94
2022-10-12T20:59:12.356Z,99604.00
2022-10-12T21:01:41.229Z,99602.97
2022-10-12T21:04:10.830Z,99603.78
2022-10-12T21:06:42.641Z,99602.38
2022-10-12T21:09:15.978Z,99594.38
2022-10-12T21:11:44.771Z,99590.28
2022-10-12T21:14:14.753Z,99587.41
2022-10-12T21:16:43.414Z,99593.13
2022-10-12T21:19:17.483Z,99587.78
2022-10-12T21:21:47.771Z,99582.22
2022-10-12T21:24:17.172Z,99588.81
2022-10-12T21:26:46.497Z,99589.63
2022-10-12T21:29:15.417Z,99588.19
2022-10-12T21:31:44.035Z,99586.94
2022-10-12T21:34:13.229Z,99586.94
2022-10-12T21:36:41.906Z,99587.78
2022-10-12T21:39:15.123Z,99584.91
2022-10-12T21:41:44.229Z,99580.56
2022-10-12T21:44:13.401Z,99585.31
2022-10-12T21:46:45.226Z,99585.69
2022-10-12T21:49:13.959Z,99585.28
2022-10-12T21:51:42.768Z,99578.50
2022-10-12T21:54:12.880Z,99583.66
2022-10-12T21:56:41.470Z,99585.69
2022-10-12T21:59:11.071Z,99589.78
2022-10-12T22:01:41.757Z,99584.84
2022-10-12T22:04:15.726Z,99581.97
2022-10-12T22:06:44.771Z,99585.66
2022-10-12T22:09:19.338Z,99578.31
2022-10-12T22:11:49.321Z,99573.59
2022-10-12T22:14:20.094Z,99578.72
2022-10-12T22:16:48.843Z,99579.97
2022-10-12T22:19:19.910Z,99571.56
2022-10-12T22:21:49.931Z,99570.75
2022-10-12T22:24:21.003Z,99563.00
2022-10-12T22:26:50.377Z,99570.59
2022-10-12T22:29:19.118Z,99566.69
2022-10-12T22:31:47.752Z,99568.97
2022-10-12T22:34:16.954Z,99563.63
2022-10-12T22:36:45.636Z,99571.63
2022-10-12T22:39:14.520Z,99569.34
2022-10-12T22:41:47.493Z,99565.44
2022-10-12T22:44:16.151Z,99560.09
2022-10-12T22:46:44.998Z,99571.38
2022-10-12T22:49:13.573Z,99559.03
2022-10-12T22:51:45.414Z,99565.59
2022-10-12T22:54:14.090Z,99567.03
2022-10-12T22:56:43.198Z,99566.03
2022-10-12T22:59:16.236Z,99556.59
2022-10-12T23:01:45.533Z,99559.47
2022-10-12T23:04:14.275Z,99563.34
2022-10-12T23:06:42.896Z,99558.22
2022-10-12T23:09:11.806Z,99557.00
2022-10-12T23:11:40.533Z,99552.84
2022-10-12T23:14:13.141Z,99554.69
2022-10-12T23:16:41.792Z,99561.28
2022-10-12T23:19:11.813Z,99560.47
2022-10-12T23:21:40.531Z,99549.56
2022-10-12T23:24:10.810Z,99553.66
2022-10-12T23:26:39.516Z,99549.16
2022-10-12T23:29:08.238Z,99555.72
2022-10-12T23:31:38.441Z,99551.81
2022-10-12T23:34:09.408Z,99555.97
2022-10-12T23:36:38.699Z,99551.00
2022-10-12T23:39:07.542Z,99549.97
2022-10-12T23:41:36.133Z,99554.91
2022-10-12T23:44:05.089Z,99555.72
2022-10-12T23:46:33.745Z,99553.28
2022-10-12T23:49:03.759Z,99551.22
2022-10-12T23:51:32.529Z,99549.16
2022-10-12T23:54:01.753Z,99550.63
2022-10-12T23:56:30.520Z,99551.66
2022-10-12T23:59:03.061Z,99552.03
